createdAt,value
2023-03-30T00:00:19.371Z,50.20
2023-03-30T00:02:46.783Z,50.05
2023-03-30T00:05:14.068Z,50.52
2023-03-30T00:07:42.438Z,51.59
2023-03-30T00:10:09.930Z,51.87
2023-03-30T00:12:37.136Z,50.41
2023-03-30T00:15:04.880Z,51.24
2023-03-30T00:17:33.515Z,51.79
2023-03-30T00:20:08.854Z,53.33
2023-03-30T00:22:35.585Z,54.26
2023-03-30T00:25:02.214Z,54.32
2023-03-30T00:27:29.012Z,54.61
2023-03-30T00:29:55.702Z,54.46
2023-03-30T00:32:22.431Z,54.54
2023-03-30T00:34:49.034Z,55.04
2023-03-30T00:37:15.691Z,55.53
2023-03-30T00:39:42.364Z,55.85
2023-03-30T00:42:13.689Z,56.65
2023-03-30T00:44:59.076Z,56.33
2023-03-30T00:47:26.277Z,57.57
2023-03-30T00:49:53.444Z,56.04
2023-03-30T00:52:25.123Z,55.54
2023-03-30T00:54:53.051Z,55.66
2023-03-30T00:57:22.827Z,55.97
2023-03-30T00:59:51.273Z,55.86
2023-03-30T01:02:19.165Z,56.24
2023-03-30T01:04:46.603Z,55.92
2023-03-30T01:07:13.828Z,56.35
2023-03-30T01:09:41.681Z,57.03
2023-03-30T01:12:08.727Z,58.32
2023-03-30T01:14:35.770Z,56.47
2023-03-30T01:17:09.347Z,56.73
2023-03-30T01:19:38.786Z,55.47
2023-03-30T01:22:08.414Z,56.54
2023-03-30T01:24:54.275Z,56.56
2023-03-30T01:27:46.584Z,56.41
2023-03-30T01:30:19.193Z,57.45
2023-03-30T01:32:54.804Z,56.98
2023-03-30T01:35:47.799Z,56.42
2023-03-30T01:38:14.576Z,56.41
2023-03-30T01:40:45.229Z,57.47
2023-03-30T01:43:20.894Z,56.92
2023-03-30T01:45:52.378Z,58.66
2023-03-30T01:48:26.576Z,58.78
2023-03-30T01:50:55.847Z,58.45
2023-03-30T01:53:34.849Z,59.24
2023-03-30T01:56:06.142Z,58.66
2023-03-30T01:58:35.575Z,59.52
2023-03-30T02:01:04.035Z,59.65
2023-03-30T02:03:33.307Z,59.08
2023-03-30T02:06:04.185Z,59.90
2023-03-30T02:08:33.214Z,59.05
2023-03-30T02:10:59.912Z,58.89
2023-03-30T02:13:31.888Z,58.55
2023-03-30T02:16:00.093Z,59.19
2023-03-30T02:18:27.293Z,59.11
2023-03-30T02:20:56.425Z,60.20
2023-03-30T02:23:23.830Z,59.73
2023-03-30T02:25:50.485Z,60.50
2023-03-30T02:28:18.649Z,59.55
2023-03-30T02:30:47.344Z,58.78
2023-03-30T02:33:33.165Z,60.10
2023-03-30T02:36:10.136Z,58.85
2023-03-30T02:38:37.283Z,59.38
2023-03-30T02:41:22.784Z,60.45
2023-03-30T02:44:04.513Z,59.66
2023-03-30T02:46:51.599Z,60.53
2023-03-30T02:49:34.352Z,59.75
2023-03-30T02:52:10.236Z,59.88
2023-03-30T02:54:39.703Z,60.26
2023-03-30T02:57:16.490Z,60.12
2023-03-30T02:59:55.113Z,60.23
2023-03-30T03:02:23.764Z,60.95
2023-03-30T03:04:53.071Z,61.14
2023-03-30T03:07:20.635Z,61.10
2023-03-30T03:09:47.547Z,61.18
2023-03-30T03:12:14.279Z,62.31
2023-03-30T03:14:40.894Z,62.05
2023-03-30T03:17:07.562Z,62.84
2023-03-30T03:19:34.236Z,62.32
2023-03-30T03:22:01.032Z,63.23
2023-03-30T03:24:27.635Z,63.58
2023-03-30T03:26:54.218Z,64.04
2023-03-30T03:29:20.897Z,64.21
2023-03-30T03:31:47.508Z,64.29
2023-03-30T03:34:14.086Z,63.63
2023-03-30T03:36:40.783Z,63.55
2023-03-30T03:39:07.445Z,63.94
2023-03-30T03:41:34.195Z,63.69
2023-03-30T03:44:00.976Z,63.66
2023-03-30T03:46:27.695Z,63.28
2023-03-30T03:48:54.687Z,63.54
2023-03-30T03:51:21.429Z,63.32
2023-03-30T03:53:49.812Z,63.06
2023-03-30T03:56:16.499Z,63.36
2023-03-30T03:58:43.150Z,63.61
2023-03-30T04:01:09.875Z,62.99
2023-03-30T04:03:36.552Z,63.79
2023-03-30T04:06:03.304Z,63.81
2023-03-30T04:08:30.003Z,64.42
2023-03-30T04:10:56.677Z,63.06
2023-03-30T04:13:23.315Z,62.39
2023-03-30T04:15:50.023Z,62.81
2023-03-30T04:18:16.659Z,62.69
2023-03-30T04:20:43.377Z,63.61
2023-03-30T04:23:10.037Z,63.08
2023-03-30T04:25:36.729Z,63.91
2023-03-30T04:28:05.332Z,63.87
2023-03-30T04:30:32.989Z,63.16
2023-03-30T04:33:03.803Z,63.73
2023-03-30T04:35:31.975Z,64.07
2023-03-30T04:37:58.874Z,63.33
2023-03-30T04:40:25.616Z,63.35
2023-03-30T04:42:52.430Z,64.33
2023-03-30T04:45:20.780Z,64.27
2023-03-30T04:47:47.864Z,64.19
2023-03-30T04:50:15.221Z,64.30
2023-03-30T04:52:41.907Z,64.80
2023-03-30T04:55:10.106Z,64.26
2023-03-30T04:57:36.866Z,65.61
2023-03-30T05:00:07.305Z,64.81
2023-03-30T05:02:34.057Z,65.67
2023-03-30T05:05:00.905Z,64.09
2023-03-30T05:07:27.667Z,64.80
2023-03-30T05:09:54.303Z,63.62
2023-03-30T05:12:21.194Z,65.92
2023-03-30T05:14:47.918Z,64.72
2023-03-30T05:17:14.584Z,65.04
2023-03-30T05:19:41.252Z,66.29
2023-03-30T05:22:07.932Z,65.93
2023-03-30T05:24:34.650Z,65.67
2023-03-30T05:27:02.515Z,65.09
2023-03-30T05:29:29.311Z,65.93
2023-03-30T05:31:55.999Z,65.09
2023-03-30T05:34:22.653Z,67.34
2023-03-30T05:36:50.140Z,67.24
2023-03-30T05:39:16.764Z,66.78
2023-03-30T05:41:43.411Z,67.70
2023-03-30T05:44:10.042Z,67.54
2023-03-30T05:46:37.029Z,67.92
2023-03-30T05:49:03.720Z,67.60
2023-03-30T05:51:30.434Z,67.20
2023-03-30T05:53:57.073Z,67.38
2023-03-30T05:56:25.489Z,68.69
2023-03-30T05:58:52.452Z,68.01
2023-03-30T06:01:21.015Z,67.89
2023-03-30T06:03:48.573Z,67.84
2023-03-30T06:06:15.467Z,67.50
2023-03-30T06:08:42.283Z,67.67
2023-03-30T06:11:08.975Z,68.10
2023-03-30T06:13:35.646Z,66.55
2023-03-30T06:16:03.407Z,68.04
2023-03-30T06:18:30.548Z,66.97
2023-03-30T06:20:57.553Z,65.90
2023-03-30T06:23:24.198Z,67.09
2023-03-30T06:25:53.224Z,65.21
2023-03-30T06:28:20.627Z,65.18
2023-03-30T06:30:49.415Z,65.86
2023-03-30T06:33:16.796Z,64.77
2023-03-30T06:35:47.420Z,63.28
2023-03-30T06:38:14.646Z,62.60
2023-03-30T06:40:41.552Z,62.37
2023-03-30T06:43:15.799Z,60.83
2023-03-30T06:45:42.618Z,61.54
2023-03-30T06:48:09.356Z,60.42
2023-03-30T06:50:36.932Z,59.63
2023-03-30T06:53:04.616Z,59.43
2023-03-30T06:55:31.291Z,57.30
2023-03-30T06:57:57.908Z,58.43
2023-03-30T07:00:24.640Z,57.77
2023-03-30T07:02:51.354Z,52.53
2023-03-30T07:05:18.219Z,49.98
2023-03-30T07:07:45.793Z,47.41
2023-03-30T07:10:12.670Z,46.12
2023-03-30T07:12:39.632Z,47.10
2023-03-30T07:15:09.674Z,46.46
2023-03-30T07:17:37.017Z,44.57
2023-03-30T07:20:04.242Z,42.96
2023-03-30T07:22:31.080Z,43.46
2023-03-30T07:24:58.025Z,43.38
2023-03-30T07:27:25.287Z,44.55
2023-03-30T07:29:52.549Z,45.46
2023-03-30T07:32:19.736Z,45.63
2023-03-30T07:34:46.485Z,47.21
2023-03-30T07:37:20.272Z,46.24
2023-03-30T07:39:48.022Z,44.13
2023-03-30T07:42:14.890Z,45.65
2023-03-30T07:44:41.586Z,45.11
2023-03-30T07:47:08.832Z,45.01
2023-03-30T07:49:35.624Z,44.63
2023-03-30T07:52:02.544Z,43.25
2023-03-30T07:54:29.224Z,43.68
2023-03-30T07:56:55.887Z,44.25
2023-03-30T07:59:23.380Z,43.79
2023-03-30T08:01:50.517Z,44.18
2023-03-30T08:04:17.537Z,43.29
2023-03-30T08:06:44.613Z,42.18
2023-03-30T08:09:12.288Z,41.04
2023-03-30T08:11:39.125Z,43.21
2023-03-30T08:14:06.204Z,42.11
2023-03-30T08:16:32.883Z,42.51
2023-03-30T08:18:59.652Z,42.69
2023-03-30T08:21:27.218Z,43.49
2023-03-30T08:23:56.300Z,42.57
2023-03-30T08:26:22.973Z,44.04
2023-03-30T08:28:49.628Z,43.80
2023-03-30T08:31:18.301Z,44.01
2023-03-30T08:33:45.150Z,44.99
2023-03-30T08:36:12.914Z,45.15
2023-03-30T08:38:39.920Z,46.82
2023-03-30T08:41:25.771Z,47.73
2023-03-30T08:43:57.974Z,48.61
2023-03-30T08:46:25.210Z,50.75
2023-03-30T08:48:52.732Z,51.50
2023-03-30T08:51:24.833Z,50.50
2023-03-30T08:53:53.603Z,50.22
2023-03-30T08:56:21.955Z,50.19
2023-03-30T08:58:59.535Z,50.11
2023-03-30T09:01:45.201Z,50.80
2023-03-30T09:04:31.340Z,49.62
2023-03-30T09:07:11.798Z,50.93
2023-03-30T09:09:43.741Z,51.11
2023-03-30T09:12:19.012Z,52.34
2023-03-30T09:14:54.614Z,53.80
2023-03-30T09:17:24.899Z,54.97
2023-03-30T09:19:55.540Z,54.37
2023-03-30T09:22:24.854Z,52.85
2023-03-30T09:24:52.729Z,53.09
2023-03-30T09:27:29.160Z,53.62
2023-03-30T09:29:58.443Z,48.43
2023-03-30T09:32:28.110Z,47.89
2023-03-30T09:35:03.896Z,45.10
2023-03-30T09:37:30.945Z,45.88
2023-03-30T09:39:59.308Z,46.15
2023-03-30T09:42:41.240Z,48.38
2023-03-30T09:45:17.493Z,48.88
2023-03-30T09:47:44.121Z,48.71
2023-03-30T09:50:14.774Z,48.52
2023-03-30T09:52:41.880Z,48.21
2023-03-30T09:55:20.880Z,47.98
2023-03-30T09:57:48.107Z,47.67
2023-03-30T10:00:26.626Z,46.94
2023-03-30T10:03:01.024Z,47.19
2023-03-30T10:05:28.354Z,47.98
2023-03-30T10:07:56.560Z,48.86
2023-03-30T10:10:26.614Z,49.53
2023-03-30T10:13:02.504Z,47.95
2023-03-30T10:15:31.822Z,48.64
2023-03-30T10:18:02.862Z,48.34
2023-03-30T10:20:35.830Z,47.22
2023-03-30T10:23:13.759Z,47.87
2023-03-30T10:25:41.805Z,46.11
2023-03-30T10:28:27.320Z,45.86
2023-03-30T10:31:00.017Z,47.13
2023-03-30T10:33:28.347Z,47.48
2023-03-30T10:35:56.653Z,45.58
2023-03-30T10:38:24.657Z,45.96
2023-03-30T10:40:55.904Z,46.46
2023-03-30T10:43:25.468Z,44.37
2023-03-30T10:45:53.628Z,44.90
2023-03-30T10:48:38.557Z,44.21
2023-03-30T10:51:26.418Z,44.13
2023-03-30T10:54:11.764Z,43.35
2023-03-30T10:56:38.352Z,42.57
2023-03-30T10:59:23.808Z,42.78
2023-03-30T11:01:56.428Z,43.54
2023-03-30T11:04:27.308Z,42.43
2023-03-30T11:06:57.060Z,43.63
2023-03-30T11:09:28.241Z,44.04
2023-03-30T11:12:01.460Z,44.63
2023-03-30T11:14:35.830Z,43.82
2023-03-30T11:17:05.249Z,45.54
2023-03-30T11:19:35.791Z,43.96
2023-03-30T11:22:11.901Z,43.76
2023-03-30T11:24:39.896Z,44.74
2023-03-30T11:27:15.907Z,45.31
2023-03-30T11:29:48.470Z,44.97
2023-03-30T11:32:15.338Z,46.24
2023-03-30T11:34:55.029Z,46.05
2023-03-30T11:37:21.872Z,46.30
2023-03-30T11:39:52.419Z,47.61
2023-03-30T11:42:19.239Z,47.33
2023-03-30T11:44:45.921Z,48.16
2023-03-30T11:47:14.156Z,48.04
2023-03-30T11:50:12.443Z,48.16
2023-03-30T11:52:39.158Z,48.17
2023-03-30T11:55:18.141Z,49.53
2023-03-30T11:58:07.597Z,48.53
2023-03-30T12:00:43.465Z,48.43
2023-03-30T12:03:16.150Z,48.39
2023-03-30T12:05:45.651Z,48.59
2023-03-30T12:08:21.238Z,48.98
2023-03-30T12:10:51.809Z,47.97
2023-03-30T12:13:19.896Z,48.37
2023-03-30T12:15:54.020Z,49.94
2023-03-30T12:18:26.593Z,48.97
2023-03-30T12:20:56.439Z,48.83
2023-03-30T12:23:26.234Z,50.68
2023-03-30T12:26:11.375Z,48.21
2023-03-30T12:28:59.327Z,47.40
2023-03-30T12:31:49.983Z,47.83
2023-03-30T12:34:17.221Z,50.35
2023-03-30T12:36:49.374Z,47.62
2023-03-30T12:39:26.860Z,50.69
2023-03-30T12:42:04.577Z,47.54
2023-03-30T12:44:42.953Z,48.05
2023-03-30T12:47:12.783Z,48.59
2023-03-30T12:49:51.904Z,48.26
2023-03-30T12:52:21.813Z,47.08
2023-03-30T12:54:48.443Z,46.65
2023-03-30T12:57:22.659Z,45.47
2023-03-30T12:59:57.882Z,45.18
2023-03-30T13:02:31.011Z,45.79
2023-03-30T13:04:58.309Z,46.26
2023-03-30T13:07:27.556Z,47.26
2023-03-30T13:09:59.810Z,48.00
2023-03-30T13:12:31.536Z,50.21
2023-03-30T13:14:59.790Z,49.32
2023-03-30T13:17:27.551Z,50.55
2023-03-30T13:20:26.157Z,47.32
2023-03-30T13:23:12.545Z,46.24
2023-03-30T13:25:44.302Z,45.17
2023-03-30T13:28:46.660Z,47.08
2023-03-30T13:31:33.490Z,46.55
2023-03-30T13:34:14.575Z,47.90
2023-03-30T13:37:01.792Z,47.71
2023-03-30T13:39:40.534Z,48.73
2023-03-30T13:42:20.255Z,49.25
2023-03-30T13:44:51.476Z,49.36
2023-03-30T13:47:21.185Z,48.78
2023-03-30T13:49:54.187Z,50.17
2023-03-30T13:52:44.153Z,50.46
2023-03-30T13:55:16.845Z,51.10
2023-03-30T13:57:45.021Z,51.75
2023-03-30T14:00:40.289Z,51.32
2023-03-30T14:03:30.716Z,52.86
2023-03-30T14:06:05.661Z,53.47
2023-03-30T14:08:35.775Z,53.58
2023-03-30T14:11:08.746Z,53.18
2023-03-30T14:13:37.277Z,51.73
2023-03-30T14:16:04.396Z,52.19
2023-03-30T14:18:31.335Z,52.46
2023-03-30T14:20:59.293Z,53.02
2023-03-30T14:23:32.504Z,52.95
2023-03-30T14:26:04.305Z,53.05
2023-03-30T14:28:34.780Z,53.39
2023-03-30T14:31:05.836Z,53.37
2023-03-30T14:33:35.694Z,53.63
2023-03-30T14:36:03.013Z,54.07
2023-03-30T14:38:34.937Z,53.49
2023-03-30T14:41:01.921Z,52.91
2023-03-30T14:43:30.801Z,52.42
2023-03-30T14:45:59.335Z,52.20
2023-03-30T14:48:31.429Z,52.38
2023-03-30T14:50:58.415Z,52.20
2023-03-30T14:53:28.929Z,52.71
2023-03-30T14:55:58.003Z,55.21
2023-03-30T14:58:26.764Z,54.07
2023-03-30T15:00:58.856Z,54.75
2023-03-30T15:03:33.392Z,55.73
2023-03-30T15:06:01.876Z,56.27
2023-03-30T15:08:31.244Z,57.28
2023-03-30T15:11:00.309Z,57.30
2023-03-30T15:13:33.050Z,57.94
2023-03-30T15:16:00.644Z,59.09
2023-03-30T15:18:28.389Z,60.14
2023-03-30T15:20:56.690Z,60.23
2023-03-30T15:23:24.650Z,59.72
2023-03-30T15:25:52.003Z,59.15
2023-03-30T15:28:20.800Z,59.41
2023-03-30T15:30:50.911Z,59.49
2023-03-30T15:33:40.082Z,60.04
2023-03-30T15:36:11.525Z,60.60
2023-03-30T15:38:48.705Z,60.53
2023-03-30T15:41:16.426Z,60.88
2023-03-30T15:43:53.705Z,59.85
2023-03-30T15:46:20.462Z,61.25
2023-03-30T15:48:48.415Z,61.08
2023-03-30T15:51:19.129Z,61.74
2023-03-30T15:53:48.593Z,62.21
2023-03-30T15:56:23.738Z,63.14
2023-03-30T15:58:51.322Z,63.14
2023-03-30T16:01:18.101Z,62.80
2023-03-30T16:03:49.589Z,63.57
2023-03-30T16:06:16.565Z,64.45
2023-03-30T16:08:45.340Z,64.62
2023-03-30T16:11:13.342Z,66.13
2023-03-30T16:13:41.667Z,65.99
2023-03-30T16:16:08.745Z,66.84
2023-03-30T16:18:35.520Z,67.99
2023-03-30T16:21:02.434Z,68.86
2023-03-30T16:23:29.125Z,69.11
2023-03-30T16:25:56.120Z,69.27
2023-03-30T16:28:22.748Z,70.35
2023-03-30T16:30:51.950Z,70.13
2023-03-30T16:33:18.991Z,70.81
2023-03-30T16:35:46.283Z,70.72
2023-03-30T16:38:19.465Z,71.28
2023-03-30T16:40:48.939Z,71.52
2023-03-30T16:43:15.719Z,72.04
2023-03-30T16:45:42.672Z,72.38
2023-03-30T16:48:12.240Z,73.37
2023-03-30T16:50:39.065Z,74.04
2023-03-30T16:53:06.752Z,74.41
2023-03-30T16:55:33.557Z,75.38
2023-03-30T16:58:00.562Z,75.97
2023-03-30T17:00:29.960Z,76.72
2023-03-30T17:02:57.638Z,77.44
2023-03-30T17:05:24.434Z,78.12
2023-03-30T17:07:55.358Z,78.31
2023-03-30T17:10:27.350Z,79.04
2023-03-30T17:12:56.193Z,79.59
2023-03-30T17:15:24.076Z,79.80
2023-03-30T17:17:52.608Z,79.85
2023-03-30T17:20:22.759Z,79.91
2023-03-30T17:22:53.266Z,80.30
2023-03-30T17:25:21.138Z,80.28
2023-03-30T17:27:50.344Z,80.43
2023-03-30T17:30:20.638Z,80.82
2023-03-30T17:32:50.182Z,80.86
2023-03-30T17:35:18.949Z,81.03
2023-03-30T17:37:46.218Z,81.64
2023-03-30T17:40:19.274Z,81.29
2023-03-30T17:42:47.207Z,81.66
2023-03-30T17:45:15.678Z,81.93
2023-03-30T17:47:43.164Z,81.05
2023-03-30T17:50:24.168Z,81.44
2023-03-30T17:52:55.461Z,81.81
2023-03-30T17:55:24.131Z,81.92
2023-03-30T17:57:51.861Z,82.20
2023-03-30T18:00:22.169Z,81.90
2023-03-30T18:02:50.600Z,82.20
2023-03-30T18:05:18.352Z,82.00
2023-03-30T18:07:45.982Z,82.34
2023-03-30T18:10:15.841Z,82.25
2023-03-30T18:12:43.308Z,82.01
2023-03-30T18:15:11.001Z,82.66
2023-03-30T18:17:39.540Z,82.62
2023-03-30T18:20:28.311Z,83.13
2023-03-30T18:22:56.370Z,83.58
2023-03-30T18:25:32.099Z,83.39
2023-03-30T18:28:10.428Z,84.13
2023-03-30T18:30:38.363Z,84.32
2023-03-30T18:33:06.287Z,84.72
2023-03-30T18:35:35.832Z,86.61
2023-03-30T18:38:03.726Z,88.65
2023-03-30T18:40:36.583Z,88.99
2023-03-30T18:43:04.478Z,88.67
2023-03-30T18:45:42.690Z,88.25
2023-03-30T18:48:12.175Z,87.66
2023-03-30T18:50:40.970Z,88.04
2023-03-30T18:53:11.515Z,89.04
2023-03-30T18:55:41.144Z,92.76
2023-03-30T18:58:17.315Z,100.00
2023-03-30T19:00:45.131Z,100.00
2023-03-30T19:03:13.987Z,100.00
2023-03-30T19:05:42.035Z,100.00
2023-03-30T19:08:17.869Z,100.00
2023-03-30T19:10:46.108Z,100.00
2023-03-30T19:13:14.335Z,100.00
2023-03-30T19:15:42.181Z,100.00
2023-03-30T19:18:09.865Z,100.00
2023-03-30T19:20:40.252Z,100.00
2023-03-30T19:23:08.293Z,100.00
2023-03-30T19:25:36.232Z,100.00
2023-03-30T19:28:08.570Z,100.00
2023-03-30T19:30:39.217Z,100.00
2023-03-30T19:33:09.087Z,100.00
2023-03-30T19:35:36.273Z,100.00
2023-03-30T19:38:05.026Z,100.00
2023-03-30T19:40:32.987Z,100.00
2023-03-30T19:43:00.522Z,100.00
2023-03-30T19:45:27.743Z,100.00
2023-03-30T19:47:56.302Z,100.00
2023-03-30T19:50:25.737Z,100.00
2023-03-30T19:52:55.467Z,100.00
2023-03-30T19:55:23.265Z,100.00
2023-03-30T19:57:50.941Z,100.00
2023-03-30T20:00:20.286Z,100.00
2023-03-30T20:02:52.493Z,100.00
2023-03-30T20:05:21.335Z,100.00
2023-03-30T20:07:50.095Z,100.00
2023-03-30T20:10:19.656Z,100.00
2023-03-30T20:12:46.969Z,100.00
2023-03-30T20:15:15.147Z,100.00
2023-03-30T20:17:44.168Z,99.99
2023-03-30T20:20:12.858Z,100.00
2023-03-30T20:22:43.968Z,99.66
2023-03-30T20:25:12.452Z,100.00
2023-03-30T20:27:40.271Z,100.00
2023-03-30T20:30:07.610Z,100.00
2023-03-30T20:32:34.777Z,100.00
2023-03-30T20:35:01.595Z,100.00
2023-03-30T20:37:28.489Z,99.79
2023-03-30T20:40:03.551Z,100.00
2023-03-30T20:42:31.098Z,100.00
2023-03-30T20:44:57.980Z,100.00
2023-03-30T20:47:26.254Z,100.00
2023-03-30T20:49:55.845Z,100.00
2023-03-30T20:52:24.022Z,99.91
2023-03-30T20:54:51.580Z,100.00
2023-03-30T20:57:19.735Z,100.00
2023-03-30T20:59:49.279Z,99.91
2023-03-30T21:02:16.507Z,100.00
2023-03-30T21:04:43.654Z,100.00
2023-03-30T21:07:10.650Z,100.00
2023-03-30T21:09:38.025Z,100.00
2023-03-30T21:12:04.832Z,100.00
2023-03-30T21:14:31.475Z,100.00
2023-03-30T21:16:58.091Z,100.00
2023-03-30T21:19:24.744Z,100.00
2023-03-30T21:21:51.918Z,100.00
2023-03-30T21:24:18.739Z,100.00
2023-03-30T21:26:45.382Z,100.00
2023-03-30T21:29:12.072Z,100.00
2023-03-30T21:31:38.712Z,100.00
2023-03-30T21:34:07.263Z,100.00
2023-03-30T21:36:33.959Z,100.00
2023-03-30T21:39:01.266Z,100.00
2023-03-30T21:41:28.945Z,100.00
2023-03-30T21:43:55.641Z,100.00
2023-03-30T21:46:23.648Z,100.00
2023-03-30T21:48:53.327Z,100.00
2023-03-30T21:51:22.147Z,100.00
2023-03-30T21:53:50.837Z,100.00
2023-03-30T21:56:18.096Z,100.00
2023-03-30T21:58:44.760Z,100.00
2023-03-30T22:01:12.932Z,100.00
2023-03-30T22:03:40.964Z,100.00
2023-03-30T22:06:08.675Z,100.00
2023-03-30T22:08:35.975Z,100.00
2023-03-30T22:11:07.407Z,100.00
2023-03-30T22:13:34.152Z,100.00
2023-03-30T22:16:02.071Z,100.00
2023-03-30T22:18:28.931Z,100.00
2023-03-30T22:20:58.975Z,100.00
2023-03-30T22:23:25.794Z,100.00
2023-03-30T22:25:52.500Z,100.00
2023-03-30T22:28:19.189Z,100.00
2023-03-30T22:30:45.936Z,100.00
2023-03-30T22:33:12.887Z,100.00
2023-03-30T22:35:41.131Z,100.00
2023-03-30T22:38:08.216Z,100.00
2023-03-30T22:40:35.949Z,100.00
2023-03-30T22:43:03.245Z,100.00
2023-03-30T22:45:30.031Z,100.00
2023-03-30T22:47:57.149Z,100.00
2023-03-30T22:50:24.894Z,100.00
2023-03-30T22:52:51.695Z,100.00
2023-03-30T22:55:18.786Z,100.00
2023-03-30T22:57:45.987Z,100.00
2023-03-30T23:00:13.859Z,100.00
2023-03-30T23:02:40.640Z,100.00
2023-03-30T23:05:09.020Z,100.00
2023-03-30T23:07:37.072Z,100.00
2023-03-30T23:10:04.243Z,100.00
2023-03-30T23:12:31.963Z,100.00
2023-03-30T23:14:59.312Z,100.00
2023-03-30T23:17:30.375Z,100.00
2023-03-30T23:19:58.238Z,100.00
2023-03-30T23:22:26.797Z,100.00
2023-03-30T23:24:53.465Z,100.00
2023-03-30T23:27:20.692Z,100.00
2023-03-30T23:29:47.334Z,100.00
2023-03-30T23:32:14.093Z,100.00
2023-03-30T23:34:42.572Z,100.00
2023-03-30T23:37:09.374Z,100.00
2023-03-30T23:39:36.060Z,100.00
2023-03-30T23:42:02.761Z,100.00
2023-03-30T23:44:30.184Z,100.00
2023-03-30T23:46:57.209Z,100.00
2023-03-30T23:49:24.069Z,100.00
2023-03-30T23:51:51.885Z,100.00
2023-03-30T23:54:18.576Z,100.00
2023-03-30T23:56:49.153Z,100.00
2023-03-30T23:59:16.160Z,100.00
